createdAt,value
2023-05-23T00:00:22.557Z,99902.19
2023-05-23T00:01:25.435Z,99904.16
2023-05-23T00:02:29.312Z,99901.34
2023-05-23T00:03:31.778Z,99906.13
2023-05-23T00:04:36.572Z,99905.00
2023-05-23T00:05:39.027Z,99894.94
2023-05-23T00:06:45.060Z,99896.09
2023-05-23T00:07:47.571Z,99893.28
2023-05-23T00:08:50.719Z,99893.28
2023-05-23T00:09:53.007Z,99893.28
2023-05-23T00:10:55.299Z,99893.28
2023-05-23T00:11:58.039Z,99890.50
2023-05-23T00:13:00.434Z,99874.88
2023-05-23T00:14:02.748Z,99882.09
2023-05-23T00:15:08.275Z,99882.44
2023-05-23T00:16:10.752Z,99885.25
2023-05-23T00:17:13.134Z,99888.03
2023-05-23T00:18:16.725Z,99879.66
2023-05-23T00:19:19.187Z,99881.63
2023-05-23T00:20:22.088Z,99884.44
2023-05-23T00:21:24.657Z,99890.84
2023-05-23T00:22:26.946Z,99886.88
2023-05-23T00:23:30.691Z,99894.44
2023-05-23T00:24:33.008Z,99892.50
2023-05-23T00:25:36.083Z,99898.09
2023-05-23T00:26:39.027Z,99903.69
2023-05-23T00:27:41.446Z,99890.84
2023-05-23T00:28:43.813Z,99894.78
2023-05-23T00:29:48.430Z,99887.22
2023-05-23T00:30:50.959Z,99891.16
2023-05-23T00:31:53.355Z,99896.75
2023-05-23T00:32:56.088Z,99903.16
2023-05-23T00:33:58.456Z,99915.53
2023-05-23T00:35:00.727Z,99911.88
2023-05-23T00:36:03.504Z,99924.22
2023-05-23T00:37:05.924Z,99924.88
2023-05-23T00:38:08.437Z,99927.16
2023-05-23T00:39:19.536Z,99935.06
2023-05-23T00:40:23.444Z,99929.81
2023-05-23T00:41:27.270Z,99935.69
2023-05-23T00:42:29.696Z,99938.34
2023-05-23T00:43:32.333Z,99942.63
2023-05-23T00:44:34.693Z,99932.06
2023-05-23T00:45:37.021Z,99929.59
2023-05-23T00:46:41.440Z,99929.91
2023-05-23T00:47:45.451Z,99933.53
2023-05-23T00:48:47.871Z,99942.22
2023-05-23T00:49:50.453Z,99937.59
2023-05-23T00:50:54.090Z,99939.56
2023-05-23T00:51:56.495Z,99938.22
2023-05-23T00:53:01.177Z,99931.84
2023-05-23T00:54:05.909Z,99923.78
2023-05-23T00:55:09.065Z,99924.91
2023-05-23T00:56:12.610Z,99919.31
2023-05-23T00:57:15.001Z,99911.28
2023-05-23T00:58:18.012Z,99916.00
2023-05-23T00:59:22.029Z,99909.94
2023-05-23T01:00:27.370Z,99905.16
2023-05-23T01:01:30.606Z,99903.50
2023-05-23T01:02:36.976Z,99909.09
2023-05-23T01:03:39.434Z,99897.09
2023-05-23T01:04:42.304Z,99902.69
2023-05-23T01:05:45.526Z,99903.84
2023-05-23T01:06:49.564Z,99902.19
2023-05-23T01:07:52.712Z,99909.75
2023-05-23T01:08:55.116Z,99903.34
2023-05-23T01:09:57.829Z,99905.31
2023-05-23T01:11:06.819Z,99898.06
2023-05-23T01:12:33.468Z,99892.00
2023-05-23T01:14:05.475Z,99884.75
2023-05-23T01:15:18.588Z,99887.53
2023-05-23T01:16:36.362Z,99877.50
2023-05-23T01:17:51.040Z,99880.63
2023-05-23T01:19:03.316Z,99868.63
2023-05-23T01:20:12.904Z,99869.78
2023-05-23T01:21:18.225Z,99873.72
2023-05-23T01:22:56.767Z,99875.69
2023-05-23T01:24:14.426Z,99873.19
2023-05-23T01:25:37.062Z,99887.50
2023-05-23T01:27:06.005Z,99894.22
2023-05-23T01:28:12.824Z,99898.19
2023-05-23T01:29:29.813Z,99910.19
2023-05-23T01:30:35.836Z,99918.38
2023-05-23T01:31:44.541Z,99920.69
2023-05-23T01:32:49.716Z,99921.00
2023-05-23T01:33:53.809Z,99926.59
2023-05-23T01:34:57.043Z,99914.09
2023-05-23T01:36:03.045Z,99916.38
2023-05-23T01:37:10.151Z,99919.16
2023-05-23T01:38:12.500Z,99917.84
2023-05-23T01:39:15.144Z,99917.03
2023-05-23T01:40:17.443Z,99908.66
2023-05-23T01:41:19.756Z,99912.91
2023-05-23T01:42:22.355Z,99917.66
2023-05-23T01:43:25.525Z,99914.84
2023-05-23T01:44:28.307Z,99908.78
2023-05-23T01:45:31.879Z,99904.00
2023-05-23T01:46:36.187Z,99905.16
2023-05-23T01:47:41.420Z,99905.16
2023-05-23T01:48:45.486Z,99899.06
2023-05-23T01:49:48.405Z,99906.59
2023-05-23T01:50:51.692Z,99911.38
2023-05-23T01:51:54.322Z,99918.63
2023-05-23T01:52:57.815Z,99916.97
2023-05-23T01:54:00.552Z,99916.13
2023-05-23T01:55:09.961Z,99917.28
2023-05-23T01:56:14.070Z,99915.31
2023-05-23T01:57:16.587Z,99916.97
2023-05-23T01:58:19.380Z,99905.28
2023-05-23T01:59:21.797Z,99904.13
2023-05-23T02:00:24.649Z,99899.69
2023-05-23T02:01:27.681Z,99900.03
2023-05-23T02:02:30.413Z,99890.31
2023-05-23T02:03:33.138Z,99884.72
2023-05-23T02:04:36.176Z,99888.97
2023-05-23T02:05:38.584Z,99883.22
2023-05-23T02:06:41.957Z,99878.47
2023-05-23T02:07:48.170Z,99874.81
2023-05-23T02:08:52.953Z,99873.50
2023-05-23T02:09:56.499Z,99871.56
2023-05-23T02:10:58.852Z,99861.00
2023-05-23T02:12:01.636Z,99870.84
2023-05-23T02:13:04.259Z,99864.44
2023-05-23T02:14:07.488Z,99875.09
2023-05-23T02:15:10.090Z,99878.22
2023-05-23T02:16:14.136Z,99877.41
2023-05-23T02:17:17.238Z,99882.75
2023-05-23T02:18:21.021Z,99880.28
2023-05-23T02:19:27.223Z,99876.97
2023-05-23T02:20:29.718Z,99882.56
2023-05-23T02:21:34.898Z,99877.63
2023-05-23T02:22:39.319Z,99875.97
2023-05-23T02:23:41.787Z,99886.66
2023-05-23T02:24:44.262Z,99876.63
2023-05-23T02:25:48.861Z,99877.44
2023-05-23T02:26:51.414Z,99874.16
2023-05-23T02:27:54.217Z,99866.59
2023-05-23T02:28:57.412Z,99870.84
2023-05-23T02:30:00.648Z,99870.53
2023-05-23T02:31:03.675Z,99871.97
2023-05-23T02:32:06.435Z,99866.41
2023-05-23T02:33:08.791Z,99861.66
2023-05-23T02:34:11.885Z,99870.31
2023-05-23T02:35:14.251Z,99865.59
2023-05-23T02:36:16.731Z,99871.16
2023-05-23T02:37:19.417Z,99865.59
2023-05-23T02:38:21.754Z,99854.75
2023-05-23T02:39:24.312Z,99869.19
2023-05-23T02:40:26.912Z,99858.34
2023-05-23T02:41:32.012Z,99859.00
2023-05-23T02:42:34.590Z,99857.84
2023-05-23T02:43:38.663Z,99857.84
2023-05-23T02:44:41.231Z,99862.59
2023-05-23T02:45:43.804Z,99860.63
2023-05-23T02:46:46.854Z,99854.22
2023-05-23T02:47:49.341Z,99858.16
2023-05-23T02:48:51.778Z,99850.63
2023-05-23T02:49:54.169Z,99844.53
2023-05-23T02:50:56.625Z,99848.97
2023-05-23T02:51:58.994Z,99838.94
2023-05-23T02:53:01.357Z,99835.00
2023-05-23T02:54:03.930Z,99844.19
2023-05-23T02:55:11.266Z,99832.53
2023-05-23T02:56:19.111Z,99831.69
2023-05-23T02:57:21.561Z,99828.75
2023-05-23T02:58:24.305Z,99827.91
2023-05-23T02:59:27.024Z,99823.47
2023-05-23T03:00:29.570Z,99827.41
2023-05-23T03:01:33.256Z,99822.13
2023-05-23T03:02:35.799Z,99826.09
2023-05-23T03:03:38.324Z,99823.59
2023-05-23T03:04:41.633Z,99821.13
2023-05-23T03:05:44.261Z,99816.69
2023-05-23T03:06:48.047Z,99815.88
2023-05-23T03:07:52.325Z,99821.44
2023-05-23T03:08:54.677Z,99813.72
2023-05-23T03:09:57.848Z,99808.97
2023-05-23T03:11:00.335Z,99812.88
2023-05-23T03:12:02.930Z,99808.75
2023-05-23T03:13:06.420Z,99809.91
2023-05-23T03:14:08.914Z,99811.88
2023-05-23T03:15:12.036Z,99813.84
2023-05-23T03:16:17.212Z,99811.34
2023-05-23T03:17:19.820Z,99808.88
2023-05-23T03:18:22.353Z,99810.88
2023-05-23T03:19:26.222Z,99809.22
2023-05-23T03:20:28.771Z,99808.41
2023-05-23T03:21:33.026Z,99815.94
2023-05-23T03:22:36.925Z,99812.66
2023-05-23T03:23:39.492Z,99815.44
2023-05-23T03:24:42.093Z,99820.19
2023-05-23T03:25:45.761Z,99816.91
2023-05-23T03:26:48.201Z,99816.91
2023-05-23T03:27:50.733Z,99814.09
2023-05-23T03:28:53.368Z,99816.91
2023-05-23T03:29:55.893Z,99811.94
2023-05-23T03:30:59.040Z,99817.50
2023-05-23T03:32:01.685Z,99805.84
2023-05-23T03:33:04.586Z,99809.47
2023-05-23T03:34:07.121Z,99813.91
2023-05-23T03:35:10.239Z,99811.44
2023-05-23T03:36:13.019Z,99810.31
2023-05-23T03:37:15.563Z,99810.59
2023-05-23T03:38:18.076Z,99810.09
2023-05-23T03:39:20.704Z,99818.16
2023-05-23T03:40:23.269Z,99819.28
2023-05-23T03:41:26.767Z,99813.72
2023-05-23T03:42:31.749Z,99819.28
2023-05-23T03:43:35.070Z,99820.13
2023-05-23T03:44:37.533Z,99824.88
2023-05-23T03:45:42.276Z,99826.00
2023-05-23T03:46:48.978Z,99827.97
2023-05-23T03:47:53.020Z,99826.84
2023-05-23T03:48:55.546Z,99827.97
2023-05-23T03:49:59.121Z,99830.75
2023-05-23T03:51:03.382Z,99826.00
2023-05-23T03:52:07.132Z,99829.63
2023-05-23T03:53:10.301Z,99833.22
2023-05-23T03:54:13.303Z,99839.66
2023-05-23T03:55:16.684Z,99830.44
2023-05-23T03:56:20.333Z,99829.31
2023-05-23T03:57:23.290Z,99831.28
2023-05-23T03:58:26.664Z,99842.13
2023-05-23T03:59:34.708Z,99840.47
2023-05-23T04:00:38.744Z,99846.84
2023-05-23T04:01:43.300Z,99848.50
2023-05-23T04:02:47.123Z,99851.31
2023-05-23T04:03:53.203Z,99844.91
2023-05-23T04:04:57.442Z,99850.16
2023-05-23T04:06:01.596Z,99847.38
2023-05-23T04:07:06.074Z,99848.19
2023-05-23T04:08:08.922Z,99855.75
2023-05-23T04:09:11.476Z,99850.97
2023-05-23T04:10:17.623Z,99850.69
2023-05-23T04:11:22.527Z,99845.91
2023-05-23T04:12:25.865Z,99847.91
2023-05-23T04:13:28.848Z,99845.91
2023-05-23T04:14:33.950Z,99845.09
2023-05-23T04:15:36.592Z,99852.31
2023-05-23T04:16:42.782Z,99858.72
2023-05-23T04:17:45.777Z,99860.38
2023-05-23T04:18:48.717Z,99858.41
2023-05-23T04:19:52.270Z,99860.06
2023-05-23T04:20:54.932Z,99860.38
2023-05-23T04:21:57.245Z,99858.41
2023-05-23T04:22:59.761Z,99857.28
2023-05-23T04:24:04.322Z,99858.09
2023-05-23T04:25:07.123Z,99862.53
2023-05-23T04:26:14.292Z,99862.53
2023-05-23T04:27:26.213Z,99860.56
2023-05-23T04:28:29.451Z,99866.66
2023-05-23T04:29:34.739Z,99863.06
2023-05-23T04:30:37.163Z,99868.63
2023-05-23T04:31:40.077Z,99860.75
2023-05-23T04:32:42.468Z,99856.84
2023-05-23T04:33:46.090Z,99860.44
2023-05-23T04:34:48.859Z,99859.31
2023-05-23T04:35:51.524Z,99867.34
2023-05-23T04:36:54.824Z,99865.41
2023-05-23T04:37:58.279Z,99867.03
2023-05-23T04:39:02.643Z,99859.50
2023-05-23T04:40:09.324Z,99863.94
2023-05-23T04:41:38.965Z,99865.56
2023-05-23T04:43:09.616Z,99865.28
2023-05-23T04:44:30.569Z,99860.50
2023-05-23T04:45:51.842Z,99861.03
2023-05-23T04:47:11.914Z,99868.25
2023-05-23T04:48:36.001Z,99869.09
2023-05-23T04:49:38.371Z,99861.53
2023-05-23T04:50:41.047Z,99867.09
2023-05-23T04:51:43.634Z,99867.09
2023-05-23T04:52:52.686Z,99865.97
2023-05-23T04:53:56.550Z,99865.97
2023-05-23T04:54:59.180Z,99865.97
2023-05-23T04:56:01.528Z,99863.19
2023-05-23T04:57:05.254Z,99854.81
2023-05-23T04:58:08.838Z,99862.84
2023-05-23T04:59:11.771Z,99869.28
2023-05-23T05:00:15.103Z,99867.31
2023-05-23T05:01:17.519Z,99867.31
2023-05-23T05:02:20.088Z,99875.34
2023-05-23T05:03:25.228Z,99869.44
2023-05-23T05:04:28.208Z,99873.56
2023-05-23T05:05:30.881Z,99881.13
2023-05-23T05:06:33.672Z,99878.00
2023-05-23T05:07:36.007Z,99878.81
2023-05-23T05:08:41.093Z,99887.72
2023-05-23T05:09:44.335Z,99884.13
2023-05-23T05:10:47.540Z,99879.34
2023-05-23T05:11:51.655Z,99882.94
2023-05-23T05:12:55.251Z,99878.69
2023-05-23T05:13:58.158Z,99881.19
2023-05-23T05:15:00.465Z,99882.00
2023-05-23T05:16:04.053Z,99887.28
2023-05-23T05:17:06.494Z,99882.53
2023-05-23T05:18:17.066Z,99882.22
2023-05-23T05:19:21.950Z,99878.28
2023-05-23T05:20:24.722Z,99887.13
2023-05-23T05:21:27.140Z,99880.44
2023-05-23T05:22:30.224Z,99882.88
2023-05-23T05:23:33.576Z,99883.41
2023-05-23T05:24:36.064Z,99887.53
2023-05-23T05:25:38.616Z,99879.97
2023-05-23T05:26:40.990Z,99878.84
2023-05-23T05:27:43.973Z,99876.84
2023-05-23T05:28:48.640Z,99883.78
2023-05-23T05:29:52.070Z,99875.09
2023-05-23T05:30:54.683Z,99881.19
2023-05-23T05:31:58.337Z,99888.91
2023-05-23T05:33:04.782Z,99885.84
2023-05-23T05:34:08.035Z,99877.13
2023-05-23T05:35:10.500Z,99880.41
2023-05-23T05:36:12.873Z,99878.13
2023-05-23T05:37:18.892Z,99887.03
2023-05-23T05:38:21.299Z,99878.31
2023-05-23T05:39:24.932Z,99889.66
2023-05-23T05:40:27.260Z,99886.56
2023-05-23T05:41:30.621Z,99891.81
2023-05-23T05:42:33.428Z,99890.03
2023-05-23T05:43:36.095Z,99883.00
2023-05-23T05:44:38.742Z,99884.31
2023-05-23T05:45:41.108Z,99876.44
2023-05-23T05:46:43.734Z,99882.19
2023-05-23T05:47:48.374Z,99887.97
2023-05-23T05:48:50.766Z,99878.94
2023-05-23T05:49:54.085Z,99883.91
2023-05-23T05:50:56.557Z,99885.69
2023-05-23T05:51:58.922Z,99887.03
2023-05-23T05:53:01.274Z,99887.22
2023-05-23T05:54:04.007Z,99882.94
2023-05-23T05:55:13.608Z,99890.03
2023-05-23T05:56:21.060Z,99888.75
2023-05-23T05:57:23.891Z,99895.53
2023-05-23T05:58:26.256Z,99891.78
2023-05-23T05:59:41.453Z,99903.31
2023-05-23T06:00:44.469Z,99895.59
2023-05-23T06:01:46.821Z,99902.34
2023-05-23T06:02:51.855Z,99896.59
2023-05-23T06:04:17.868Z,99901.38
2023-05-23T06:05:20.794Z,99902.06
2023-05-23T06:06:23.583Z,99898.59
2023-05-23T06:07:26.641Z,99903.19
2023-05-23T06:08:29.000Z,99903.03
2023-05-23T06:09:31.388Z,99904.88
2023-05-23T06:10:34.097Z,99902.25
2023-05-23T06:11:41.113Z,99908.00
2023-05-23T06:12:43.782Z,99909.00
2023-05-23T06:13:46.417Z,99904.72
2023-05-23T06:14:48.731Z,99905.19
2023-05-23T06:15:52.373Z,99908.16
2023-05-23T06:16:55.032Z,99915.09
2023-05-23T06:17:57.478Z,99908.03
2023-05-23T06:19:00.452Z,99904.56
2023-05-23T06:20:05.343Z,99907.84
2023-05-23T06:21:09.608Z,99902.44
2023-05-23T06:22:12.455Z,99906.03
2023-05-23T06:23:14.839Z,99912.94
2023-05-23T06:24:17.244Z,99913.75
2023-05-23T06:25:19.741Z,99919.06
2023-05-23T06:26:22.985Z,99909.81
2023-05-23T06:27:27.661Z,99912.28
2023-05-23T06:28:30.031Z,99916.72
2023-05-23T06:29:32.326Z,99916.72
2023-05-23T06:30:37.662Z,99921.19
2023-05-23T06:31:40.168Z,99913.59
2023-05-23T06:32:42.716Z,99910.50
2023-05-23T06:33:45.046Z,99919.69
2023-05-23T06:34:47.346Z,99914.09
2023-05-23T06:35:50.931Z,99912.09
2023-05-23T06:36:53.649Z,99918.88
2023-05-23T06:37:56.183Z,99914.91
2023-05-23T06:38:58.516Z,99918.56
2023-05-23T06:40:01.751Z,99910.16
2023-05-23T06:41:07.428Z,99914.91
2023-05-23T06:42:11.628Z,99923.00
2023-05-23T06:43:40.340Z,99916.56
2023-05-23T06:44:58.776Z,99919.38
2023-05-23T06:46:01.222Z,99921.81
2023-05-23T06:47:04.529Z,99907.81
2023-05-23T06:48:07.230Z,99919.03
2023-05-23T06:49:15.022Z,99917.06
2023-05-23T06:50:20.233Z,99919.53
2023-05-23T06:51:24.362Z,99912.78
2023-05-23T06:52:27.300Z,99920.84
2023-05-23T06:53:29.725Z,99915.75
2023-05-23T06:54:32.158Z,99917.38
2023-05-23T06:55:34.927Z,99912.28
2023-05-23T06:56:37.247Z,99912.44
2023-05-23T06:57:40.652Z,99910.94
2023-05-23T06:58:45.195Z,99912.25
2023-05-23T06:59:49.469Z,99913.56
2023-05-23T07:00:51.849Z,99920.16
2023-05-23T07:02:01.017Z,99911.06
2023-05-23T07:03:04.957Z,99920.44
2023-05-23T07:04:09.130Z,99917.81
2023-05-23T07:05:11.656Z,99914.03
2023-05-23T07:06:22.333Z,99916.66
2023-05-23T07:07:26.121Z,99917.94
2023-05-23T07:08:28.609Z,99921.75
2023-05-23T07:09:34.567Z,99917.94
2023-05-23T07:10:49.172Z,99916.78
2023-05-23T07:12:11.711Z,99907.69
2023-05-23T07:13:17.002Z,99917.09
2023-05-23T07:14:20.503Z,99913.94
2023-05-23T07:15:22.881Z,99914.91
2023-05-23T07:16:36.340Z,99918.22
2023-05-23T07:17:42.142Z,99916.72
2023-05-23T07:18:44.961Z,99920.00
2023-05-23T07:19:47.265Z,99929.72
2023-05-23T07:20:50.322Z,99917.50
2023-05-23T07:21:55.291Z,99928.38
2023-05-23T07:22:58.057Z,99923.25
2023-05-23T07:24:00.779Z,99914.97
2023-05-23T07:25:04.473Z,99917.13
2023-05-23T07:26:10.062Z,99916.78
2023-05-23T07:27:19.715Z,99919.25
2023-05-23T07:28:22.509Z,99920.56
2023-05-23T07:29:25.053Z,99919.06
2023-05-23T07:30:28.668Z,99920.00
2023-05-23T07:31:31.599Z,99925.78
2023-05-23T07:32:35.086Z,99928.38
2023-05-23T07:33:37.863Z,99919.78
2023-05-23T07:34:41.468Z,99925.69
2023-05-23T07:35:45.018Z,99926.34
2023-05-23T07:36:47.921Z,99917.38
2023-05-23T07:37:51.225Z,99922.09
2023-05-23T07:38:53.763Z,99916.75
2023-05-23T07:39:56.156Z,99916.66
2023-05-23T07:41:10.086Z,99921.06
2023-05-23T07:42:14.227Z,99921.44
2023-05-23T07:43:16.690Z,99921.03
2023-05-23T07:44:20.729Z,99923.81
2023-05-23T07:45:24.833Z,99912.13
2023-05-23T07:46:27.325Z,99917.63
2023-05-23T07:47:29.787Z,99910.28
2023-05-23T07:48:34.227Z,99920.28
2023-05-23T07:49:37.230Z,99918.97
2023-05-23T07:50:41.076Z,99914.91
2023-05-23T07:51:44.860Z,99925.75
2023-05-23T07:52:47.289Z,99922.47
2023-05-23T07:53:52.275Z,99919.19
2023-05-23T07:54:57.308Z,99924.81
2023-05-23T07:55:59.596Z,99928.78
2023-05-23T07:57:07.582Z,99928.31
2023-05-23T07:58:11.795Z,99925.03
2023-05-23T07:59:14.202Z,99931.00
2023-05-23T08:00:18.583Z,99937.44
2023-05-23T08:01:27.466Z,99934.47
2023-05-23T08:02:37.411Z,99931.97
2023-05-23T08:03:39.864Z,99929.81
2023-05-23T08:04:49.100Z,99939.78
2023-05-23T08:05:51.805Z,99941.97
2023-05-23T08:08:03.697Z,99940.28
2023-05-23T08:09:07.097Z,99940.75
2023-05-23T08:10:13.716Z,99941.69
2023-05-23T08:11:16.210Z,99940.94
2023-05-23T08:12:22.397Z,99938.13
2023-05-23T08:13:31.550Z,99930.94
2023-05-23T08:15:00.143Z,99935.06
2023-05-23T08:16:10.395Z,99942.34
2023-05-23T08:17:13.635Z,99940.34
2023-05-23T08:18:18.390Z,99946.78
2023-05-23T08:19:20.960Z,99937.16
2023-05-23T08:20:31.057Z,99934.78
2023-05-23T08:21:36.596Z,99942.91
2023-05-23T08:22:39.001Z,99940.16
2023-05-23T08:23:41.803Z,99943.81
2023-05-23T08:24:45.982Z,99949.09
2023-05-23T08:25:48.782Z,99939.91
2023-05-23T08:26:51.431Z,99947.66
2023-05-23T08:27:54.226Z,99950.91
2023-05-23T08:29:12.820Z,99943.38
2023-05-23T08:30:16.804Z,99940.66
2023-05-23T08:31:19.863Z,99948.75
2023-05-23T08:32:22.449Z,99946.00
2023-05-23T08:33:26.107Z,99957.78
2023-05-23T08:34:34.200Z,99949.38
2023-05-23T08:35:37.366Z,99945.00
2023-05-23T08:36:43.529Z,99960.44
2023-05-23T08:37:51.099Z,99959.63
2023-05-23T08:38:57.691Z,99953.59
2023-05-23T08:40:05.266Z,99958.06
2023-05-23T08:41:31.309Z,99964.19
2023-05-23T08:42:40.934Z,99950.50
2023-05-23T08:43:45.104Z,99956.16
2023-05-23T08:44:52.071Z,99957.34
2023-05-23T08:45:55.640Z,99964.19
2023-05-23T08:47:02.712Z,99958.06
2023-05-23T08:48:20.512Z,99963.72
2023-05-23T08:49:26.182Z,99967.72
2023-05-23T08:50:30.818Z,99975.75
2023-05-23T08:51:37.986Z,99966.78
2023-05-23T08:52:56.251Z,99965.13
2023-05-23T08:53:59.995Z,99964.31
2023-05-23T08:55:06.291Z,99970.69
2023-05-23T08:56:10.621Z,99973.53
2023-05-23T08:57:18.229Z,99966.59
2023-05-23T08:58:29.532Z,99971.41
2023-05-23T08:59:35.449Z,99975.31
2023-05-23T09:00:38.039Z,99976.03
2023-05-23T09:01:42.152Z,99969.84
2023-05-23T09:02:47.039Z,99973.75
2023-05-23T09:04:07.403Z,99987.19
2023-05-23T09:05:15.730Z,99977.81
2023-05-23T09:06:21.641Z,99975.72
2023-05-23T09:07:24.243Z,99981.25
2023-05-23T09:08:28.792Z,99981.50
2023-05-23T09:09:34.211Z,99984.47
2023-05-23T09:10:38.290Z,99984.38
2023-05-23T09:11:46.220Z,99991.88
2023-05-23T09:12:50.083Z,99983.22
2023-05-23T09:13:53.125Z,99989.09
2023-05-23T09:15:00.119Z,99989.25
2023-05-23T09:16:04.350Z,99988.69
2023-05-23T09:17:16.993Z,99991.75
2023-05-23T09:18:19.334Z,100000.78
2023-05-23T09:19:22.011Z,100000.56
2023-05-23T09:20:33.644Z,99999.63
2023-05-23T09:21:44.048Z,100000.22
2023-05-23T09:22:52.021Z,99997.66
2023-05-23T09:23:55.261Z,99997.03
2023-05-23T09:24:58.973Z,100006.91
2023-05-23T09:26:06.761Z,100005.97
2023-05-23T09:27:09.260Z,100009.00
2023-05-23T09:28:11.906Z,100011.69
2023-05-23T09:29:15.118Z,100014.38
2023-05-23T09:30:19.343Z,100011.81
2023-05-23T09:31:27.097Z,100017.22
2023-05-23T09:32:29.647Z,100012.63
2023-05-23T09:33:49.619Z,100007.22
2023-05-23T09:35:03.873Z,100019.84
2023-05-23T09:36:07.654Z,100013.66
2023-05-23T09:37:13.671Z,100023.13
2023-05-23T09:38:16.759Z,100022.19
2023-05-23T09:39:19.534Z,100032.44
2023-05-23T09:40:23.093Z,100031.50
2023-05-23T09:41:34.672Z,100030.06
2023-05-23T09:42:43.848Z,100030.28
2023-05-23T09:43:54.355Z,100029.34
2023-05-23T09:44:56.874Z,100032.38
2023-05-23T09:46:17.383Z,100025.31
2023-05-23T09:47:19.834Z,100028.81
2023-05-23T09:48:31.011Z,100027.88
2023-05-23T09:49:33.702Z,100036.97
2023-05-23T09:50:36.285Z,100033.22
2023-05-23T09:51:40.363Z,100032.25
2023-05-23T09:52:43.030Z,100030.97
2023-05-23T09:53:45.567Z,100042.53
2023-05-23T09:54:48.071Z,100039.59
2023-05-23T09:55:52.002Z,100035.13
2023-05-23T09:56:57.596Z,100037.00
2023-05-23T09:58:01.602Z,100037.69
2023-05-23T09:59:07.829Z,100031.56
2023-05-23T10:00:12.588Z,100037.84
2023-05-23T10:01:19.963Z,100042.97
2023-05-23T10:02:42.841Z,100043.69
2023-05-23T10:03:50.612Z,100042.38
2023-05-23T10:04:54.427Z,100042.72
2023-05-23T10:06:17.931Z,100040.91
2023-05-23T10:07:22.694Z,100038.81
2023-05-23T10:08:32.599Z,100034.69
2023-05-23T10:09:38.358Z,100046.94
2023-05-23T10:10:58.965Z,100041.19
2023-05-23T10:12:13.386Z,100050.28
2023-05-23T10:13:16.258Z,100047.81
2023-05-23T10:14:19.802Z,100045.72
2023-05-23T10:15:24.211Z,100044.41
2023-05-23T10:16:48.490Z,100060.25
2023-05-23T10:18:06.269Z,100050.88
2023-05-23T10:19:24.445Z,100057.16
2023-05-23T10:20:34.373Z,100055.88
2023-05-23T10:21:46.638Z,100053.41
2023-05-23T10:22:50.449Z,100058.50
2023-05-23T10:23:53.411Z,100057.53
2023-05-23T10:24:55.875Z,100060.00
2023-05-23T10:25:58.300Z,100054.41
2023-05-23T10:27:01.080Z,100050.78
2023-05-23T10:28:05.468Z,100053.59
2023-05-23T10:29:07.873Z,100062.34
2023-05-23T10:30:10.834Z,100055.91
2023-05-23T10:31:13.344Z,100057.06
2023-05-23T10:32:16.806Z,100055.44
2023-05-23T10:33:20.069Z,100063.00
2023-05-23T10:34:28.872Z,100066.16
2023-05-23T10:36:10.380Z,100063.84
2023-05-23T10:37:26.589Z,100053.28
2023-05-23T10:38:40.465Z,100062.03
2023-05-23T10:40:11.895Z,100059.22
2023-05-23T10:41:23.436Z,100066.84
2023-05-23T10:42:45.576Z,100065.19
2023-05-23T10:44:13.301Z,100058.22
2023-05-23T10:45:20.616Z,100064.66
2023-05-23T10:46:23.237Z,100060.19
2023-05-23T10:47:31.539Z,100066.50
2023-05-23T10:48:36.441Z,100064.38
2023-05-23T10:49:44.083Z,100071.94
2023-05-23T10:50:47.027Z,100059.09
2023-05-23T10:51:54.974Z,100076.41
2023-05-23T10:52:57.300Z,100071.47
2023-05-23T10:53:59.847Z,100071.47
2023-05-23T10:55:02.257Z,100062.22
2023-05-23T10:56:19.606Z,100066.69
2023-05-23T10:57:28.184Z,100071.13
2023-05-23T10:58:32.260Z,100073.13
2023-05-23T10:59:37.065Z,100071.94
2023-05-23T11:00:39.922Z,100071.63
2023-05-23T11:01:42.805Z,100072.09
2023-05-23T11:02:57.401Z,100072.59
2023-05-23T11:04:05.776Z,100062.19
2023-05-23T11:05:33.014Z,100067.16
2023-05-23T11:06:43.652Z,100068.47
2023-05-23T11:07:46.361Z,100068.16
2023-05-23T11:08:49.207Z,100066.31
2023-05-23T11:10:10.643Z,100072.38
2023-05-23T11:11:13.082Z,100068.94
2023-05-23T11:12:15.501Z,100073.03
2023-05-23T11:13:18.194Z,100073.16
2023-05-23T11:14:46.402Z,100075.66
2023-05-23T11:15:50.788Z,100075.31
2023-05-23T11:16:53.521Z,100077.44
2023-05-23T11:17:57.959Z,100074.28
2023-05-23T11:19:18.763Z,100070.31
2023-05-23T11:20:23.711Z,100073.63
2023-05-23T11:21:26.235Z,100079.72
2023-05-23T11:22:32.149Z,100064.50
2023-05-23T11:23:44.038Z,100072.28
2023-05-23T11:24:57.408Z,100071.09
2023-05-23T11:25:59.722Z,100075.56
2023-05-23T11:27:02.064Z,100078.84
2023-05-23T11:28:05.302Z,100079.31
2023-05-23T11:29:10.297Z,100073.38
2023-05-23T11:30:14.994Z,100077.47
2023-05-23T11:31:17.706Z,100079.13
2023-05-23T11:32:20.139Z,100078.47
2023-05-23T11:33:22.485Z,100080.09
2023-05-23T11:34:28.469Z,100085.06
2023-05-23T11:35:31.262Z,100076.63
2023-05-23T11:36:34.032Z,100081.09
2023-05-23T11:37:38.579Z,100088.31
2023-05-23T11:38:41.144Z,100088.00
2023-05-23T11:39:46.756Z,100081.56
2023-05-23T11:40:49.119Z,100078.75
2023-05-23T11:42:04.315Z,100073.13
2023-05-23T11:43:11.690Z,100077.59
2023-05-23T11:44:14.373Z,100077.25
2023-05-23T11:45:16.718Z,100075.28
2023-05-23T11:46:19.483Z,100078.88
2023-05-23T11:47:22.230Z,100080.03
2023-05-23T11:48:24.650Z,100077.25
2023-05-23T11:49:29.145Z,100077.25
2023-05-23T11:50:31.463Z,100084.84
2023-05-23T11:51:33.857Z,100072.78
2023-05-23T11:52:36.318Z,100079.22
2023-05-23T11:53:39.030Z,100083.19
2023-05-23T11:54:43.234Z,100072.31
2023-05-23T11:55:49.764Z,100074.28
2023-05-23T11:56:52.626Z,100077.09
2023-05-23T11:57:56.811Z,100075.47
2023-05-23T11:58:59.177Z,100073.47
2023-05-23T12:00:01.548Z,100077.44
2023-05-23T12:01:06.894Z,100080.25
2023-05-23T12:02:09.301Z,100071.81
2023-05-23T12:03:12.131Z,100074.63
2023-05-23T12:04:14.639Z,100073.81
2023-05-23T12:05:17.265Z,100074.63
2023-05-23T12:06:20.532Z,100072.97
2023-05-23T12:07:22.909Z,100073.81
2023-05-23T12:08:25.798Z,100070.66
2023-05-23T12:09:28.164Z,100070.66
2023-05-23T12:10:30.623Z,100063.88
2023-05-23T12:11:33.470Z,100059.06
2023-05-23T12:12:35.953Z,100069.50
2023-05-23T12:13:41.728Z,100073.13
2023-05-23T12:14:46.741Z,100067.16
2023-05-23T12:15:49.596Z,100069.16
2023-05-23T12:16:55.153Z,100063.53
2023-05-23T12:17:58.369Z,100063.53
2023-05-23T12:19:05.351Z,100073.13
2023-05-23T12:20:08.700Z,100061.88
2023-05-23T12:21:12.179Z,100067.84
2023-05-23T12:22:14.840Z,100069.84
2023-05-23T12:23:23.846Z,100071.00
2023-05-23T12:24:26.219Z,100074.47
2023-05-23T12:25:28.705Z,100070.38
2023-05-23T12:26:31.179Z,100072.69
2023-05-23T12:27:35.942Z,100074.56
2023-05-23T12:28:40.615Z,100075.22
2023-05-23T12:29:43.034Z,100079.06
2023-05-23T12:30:45.337Z,100083.72
2023-05-23T12:31:54.613Z,100085.22
2023-05-23T12:32:57.061Z,100091.00
2023-05-23T12:33:59.939Z,100084.75
2023-05-23T12:35:02.476Z,100083.78
2023-05-23T12:36:05.131Z,100085.63
2023-05-23T12:37:19.061Z,100084.66
2023-05-23T12:38:23.878Z,100085.63
2023-05-23T12:39:28.343Z,100086.78
2023-05-23T12:40:31.051Z,100089.78
2023-05-23T12:41:34.380Z,100087.63
2023-05-23T12:42:54.195Z,100085.50